メインページ
METAR-TAF:

METAR-TAF

空港 :

タンナ島, バヌアツ

緯度: 19-27-18S, 経度: 169-13-26E, 海抜: 6m

現時点の気象観測

当レポートは14分前の05:00(UTC)に作成
東/北東の風 12kt
気温 27°C
湿度 74%
気圧 1012 hPa
視程10km以上
高度2500ftの雲はほとんどない
高度12000ftの雲は散在している

METAR: NVVW 200500Z 06012KT 9999 FEW025 SCT120 27/22 Q1012 RMK NIL

時間: 16:14 (05:14 UTC)

予報

当レポートは6時間54分前の22:20(UTC)に作成
予報は20日の 00時(UTC)から 20日の 24時(UTC)まで有効
東/北東の風 17kt
視程10km以上
高度2000ftの千切れ雲あり
高度4000ftの曇り
確率 40%
間 INからTE UTC
視程: 9000m
高度1800ftの千切れ雲あり
高度3500ftの曇り
弱いにわか雨

TAF: NVVW 192220Z 2000/2024 07017KT 9999 BKN020 OVC040 PROB40 INTER 2000/2006 9000 -SHRA BKN018 OVC035

4,000以上の空港の気象観測と天気予報(METAR報とTAF報)

利用可能な観測所は地図上に黄色い丸と赤い丸で示す。

丸の上にカーソルを重ねると観測所名を参照できる。

次にクリックすると気象観測と天気予報を参照できる。

マップの切り替え:黒色「×」印の緑ボタンをクリックして拡大、「-」印の緑ボタンをクリックして縮小、緑色の三角印をクリックして隣りの地図に切り替え


METAR-TAF: